Strona główna
METAR-TAF:

METAR-TAF

Lotnisko :

Naval Station Rota

Rota, Hiszpania

Szerokość geograficzna: 36-39N, Długość geograficzna: 006-21W, wysokość: 26 m

Aktualna obserwacja pogody

Raport powstał 42 minut temu, godzina 17:30 UTC
Wiatr 13 kt od zachód
Temperatura 24°C
Wilgotność 74%
Ciśnienie 1008 hPa
Widzialność 10 km lub więcej
Brak chmur poniżej 1500 m i brak chmur cumulonimbus

METAR: LERT 251730Z 28013KT CAVOK 24/19 Q1008 NOSIG

czas: 20:12 (18:12 UTC)

Prognoza

Raport powstał 4 godziny i 12 minut temu, godzina 14:00 UTC
Prognoza ważna od 25 godzina 15 UTC do 26 godzina 15 UTC
Wiatr 13 kt od zachód
Widzialność 10 km lub więcej
Brak chmur poniżej 1500 m i brak chmur cumulonimbus
Stopniowe zmiany
od 25 godzina 21 UTC do 25 godzina 24 UTC
Wiatr 6 kt od południe
Stopniowe zmiany
od 26 godzina 07 UTC do 26 godzina 09 UTC
Wiatr 10 kt od zachód

TAF: LERT 251400Z 2515/2615 27013KT CAVOK TX29/2515Z TN20/2605Z BECMG 2521/2524 18006KT BECMG 2607/2609 26010KT

Obserwacja i prognoza pogody dla ponad 4000 lotnisk (raport METAR i TAF).

Dostępne stacje oznaczono żółtymi i czerwonymi punktami na mapie.

Najedź kursorem aby zobaczyć nazwę stacji.

Kliknij aby zobaczyć obserwacje i prognozy pogody.

Aby zmienić mapę: kliknij na zielony przycisk z czarnym krzyżykiem, aby powiększyć; na zielony przycisk z myślnikiem, aby pomniejszyć; na zielone strzałki, aby przejść do map sąsiednich.


METAR-TAF: